Hovedside
METAR-TAF:

METAR-TAF

Lufthavner :

Ålesund lufthavn. Vigra

Ålesund, Norge

breddegrad: 62-34N, lengdegrad: 006-07E, høyde over havet: 2 m

Gjeldene værobservasjon

Denne rapporten ble laget for 26 minutter siden, klokken 11:20 UTC
Vind 6 kt fra Nordvest
Temperatur 3°C
Luftfuktighet 75%
Trykk 1004 hPa
Sikt 10 km eller mer
Få skyer i en høyde av 3900 ft

METAR: ENAL 241120Z 31006KT 9999 FEW039 03/M01 Q1004

Tid: 12:46 (11:46 UTC)

Varsel

Denne rapporten ble laget for 46 minutter siden, klokken 11:00 UTC
Varsel gyldig fra 24. klokken 12 UTC til 24. klokken 21 UTC
Vind 8 kt fra Vest
Sikt 10 km eller mer
Få skyer i en høyde av 1500 ft, Tårnskyer (cumulus).
Spredte skyer i en høyde av 4000 ft
lette regnbyger, snø
Blir
fra 24. klokken 19 UTC til 24. klokken 21 UTC
Vind 12 kt fra Øst-sørøst

TAF: ENAL 241100Z 2412/2421 28008KT 9999 -SHRASN FEW015TCU SCT040 BECMG 2419/2421 12012KT

Værobservasjoner og værvarsel for over 4000 flyplasser (METAR- og TAF-rapporter).

Tilgjengelige stasjoner er representert av de røde og gule prikkene på kartet.

Hold musepekeren over prikken for å se navnet på stasjonen.

Klikk så for å se værobservasjoner og -varsler.

For å forandre kartet kan du klikke på den grønne knappen med svart kryss for å zoome inn, på den grønne knappen med strek for å zoome ut, eller på de grønne pilene for å se tilstøtende kart.


METAR-TAF: